Time;durP1;ratioP1;P1;durP2;ratioP2;P2;SDS_P1;SDS_P2;PMS_P1;PMS_P2;Temp;Humidity;BMP_temperature;BMP_pressure;BME280_temperature;BME280_humidity;BME280_pressure;Samples;Min_cycle;Max_cycle;Signal;HPM_P1;HPM_P2
2023/08/08 00:01:55;;;;;;;3.47;1.10;;;13.80;99.90;;;;;;5071704;28;20048;-49
2023/08/08 00:04:21;;;;;;;7.88;1.65;;;13.80;99.90;;;;;;5071318;28;20494;-53
2023/08/08 00:06:47;;;;;;;4.07;1.45;;;13.80;99.90;;;;;;5071313;28;20021;-55
2023/08/08 00:09:13;;;;;;;1.75;1.10;;;13.70;99.90;;;;;;5071523;28;20020;-55
2023/08/08 00:11:39;;;;;;;5.55;1.55;;;13.60;99.90;;;;;;5071253;28;20474;-55
2023/08/08 00:14:04;;;;;;;3.88;1.52;;;13.60;99.90;;;;;;5071367;28;20059;-47
2023/08/08 00:16:30;;;;;;;8.85;1.50;;;13.60;99.90;;;;;;5071308;28;20020;-46
2023/08/08 00:18:55;;;;;;;3.25;1.48;;;13.60;99.90;;;;;;5070946;28;20044;-55
2023/08/08 00:21:21;;;;;;;3.20;1.23;;;13.60;99.90;;;;;;5070955;28;20546;-47
2023/08/08 00:23:47;;;;;;;3.95;1.40;;;13.60;99.90;;;;;;5070872;28;20031;-56
2023/08/08 00:26:13;;;;;;;9.82;1.65;;;13.60;99.90;;;;;;5071019;28;20055;-47
2023/08/08 00:28:38;;;;;;;4.18;1.23;;;13.50;99.90;;;;;;5071032;28;20037;-49
2023/08/08 00:31:04;;;;;;;3.30;1.00;;;13.60;99.90;;;;;;5070854;28;20103;-48
2023/08/08 00:33:29;;;;;;;4.88;1.13;;;13.50;99.90;;;;;;5070549;28;20044;-50
2023/08/08 00:35:55;;;;;;;3.78;1.23;;;13.50;99.90;;;;;;5070496;28;20051;-55
2023/08/08 00:38:21;;;;;;;4.60;1.10;;;13.50;99.90;;;;;;5070762;28;20508;-47
2023/08/08 00:40:47;;;;;;;4.32;1.17;;;13.50;99.90;;;;;;5070467;28;20020;-48
2023/08/08 00:43:12;;;;;;;5.13;1.70;;;13.50;99.90;;;;;;5070765;28;20021;-53
2023/08/08 00:45:41;;;;;;;2.63;1.23;;;13.50;99.90;;;;;;5070387;28;20063;-53
2023/08/08 00:48:06;;;;;;;3.42;1.20;;;13.50;99.90;;;;;;5070517;28;20016;-52
2023/08/08 00:50:32;;;;;;;3.05;1.30;;;13.50;99.90;;;;;;5070513;28;20424;-52
2023/08/08 00:52:58;;;;;;;3.88;1.17;;;13.50;99.90;;;;;;5070354;28;20060;-51
2023/08/08 00:55:23;;;;;;;5.68;1.50;;;13.50;99.90;;;;;;5070448;28;20481;-51
2023/08/08 00:57:49;;;;;;;8.40;1.48;;;13.60;99.90;;;;;;5070363;28;20048;-54
2023/08/08 01:00:15;;;;;;;3.05;1.08;;;13.50;99.90;;;;;;5070589;28;20110;-49
2023/08/08 01:02:41;;;;;;;2.60;1.20;;;13.50;99.90;;;;;;5070097;28;20468;-51
2023/08/08 01:05:07;;;;;;;5.40;1.20;;;13.40;99.90;;;;;;5070419;28;20047;-54
2023/08/08 01:08:08;;;;;;;4.75;1.27;;;13.40;99.90;;;;;;5070209;28;20496;-52
2023/08/08 01:10:39;;;;;;;4.40;1.33;;;13.30;99.90;;;;;;5065440;28;20152;-49
2023/08/08 01:13:18;;;;;;;3.95;1.48;;;13.30;99.90;;;;;;5070015;28;20425;-47
2023/08/08 01:15:46;;;;;;;4.88;1.45;;;13.20;99.90;;;;;;5069993;28;20016;-55
2023/08/08 01:18:14;;;;;;;3.55;1.60;;;13.20;99.90;;;;;;5069903;28;20112;-49
2023/08/08 01:20:41;;;;;;;2.92;1.20;;;13.20;99.90;;;;;;5069837;28;20016;-51
2023/08/08 01:23:39;;;;;;;5.13;1.35;;;13.20;99.90;;;;;;5070129;28;20150;-55
2023/08/08 01:26:05;;;;;;;2.85;1.30;;;13.30;99.90;;;;;;5069986;28;20024;-49
2023/08/08 01:28:31;;;;;;;4.95;1.63;;;13.40;99.90;;;;;;5069820;28;20039;-48
2023/08/08 01:30:57;;;;;;;4.05;1.33;;;13.40;99.90;;;;;;5070097;28;20023;-56
2023/08/08 01:33:23;;;;;;;9.07;1.55;;;13.50;99.90;;;;;;5069866;28;20393;-51
2023/08/08 01:35:56;;;;;;;4.43;1.35;;;13.50;99.90;;;;;;5069615;28;20056;-48
2023/08/08 01:38:25;;;;;;;5.70;1.80;;;13.50;99.90;;;;;;5070032;28;20028;-48
2023/08/08 01:40:51;;;;;;;2.60;1.40;;;13.50;99.90;;;;;;5069777;28;20453;-54
2023/08/08 01:43:18;;;;;;;4.53;1.95;;;13.50;99.90;;;;;;5082900;28;20069;-49
2023/08/08 01:45:44;;;;;;;3.67;1.30;;;13.50;99.90;;;;;;5088369;28;20020;-51
2023/08/08 01:48:11;;;;;;;4.25;1.10;;;13.40;99.90;;;;;;5089851;28;20472;-55
2023/08/08 01:50:37;;;;;;;5.07;1.40;;;13.40;99.90;;;;;;5089245;28;20024;-48
2023/08/08 01:53:03;;;;;;;2.83;1.27;;;13.40;99.90;;;;;;5090022;28;20016;-48
2023/08/08 01:55:30;;;;;;;2.35;1.20;;;13.40;99.90;;;;;;5089663;28;20020;-47
2023/08/08 01:57:55;;;;;;;4.05;1.63;;;13.30;99.90;;;;;;5089885;28;20036;-53
2023/08/08 02:00:21;;;;;;;3.55;1.35;;;13.30;99.90;;;;;;5089684;28;20032;-49
2023/08/08 02:02:47;;;;;;;7.43;1.75;;;13.30;99.90;;;;;;5089954;28;20024;-52
2023/08/08 02:05:13;;;;;;;7.05;1.50;;;13.20;99.90;;;;;;5089521;28;20035;-50
2023/08/08 02:07:38;;;;;;;8.35;1.30;;;13.20;99.90;;;;;;5090035;28;20062;-48
2023/08/08 02:10:04;;;;;;;3.85;1.25;;;13.10;99.90;;;;;;5089608;28;20025;-53
2023/08/08 02:12:30;;;;;;;5.57;1.60;;;13.00;99.90;;;;;;5088123;28;20024;-49
2023/08/08 02:14:59;;;;;;;7.55;1.52;;;13.00;99.90;;;;;;5089494;28;20044;-53
2023/08/08 02:17:26;;;;;;;2.47;1.10;;;12.90;99.90;;;;;;5089259;28;20099;-52
2023/08/08 02:19:51;;;;;;;3.70;1.55;;;12.80;99.90;;;;;;5089499;28;20028;-53
2023/08/08 02:22:17;;;;;;;4.28;1.25;;;12.80;99.90;;;;;;5089441;28;20387;-50
2023/08/08 02:24:43;;;;;;;9.38;1.23;;;12.80;99.90;;;;;;5089707;28;20024;-52
2023/08/08 02:27:09;;;;;;;3.17;1.30;;;12.80;99.90;;;;;;5089406;28;20017;-48
2023/08/08 02:29:35;;;;;;;2.97;1.17;;;12.80;99.90;;;;;;5089287;28;20016;-50
2023/08/08 02:32:00;;;;;;;2.00;1.05;;;12.80;99.90;;;;;;5089426;28;20024;-50
2023/08/08 02:34:26;;;;;;;3.38;1.20;;;12.80;99.90;;;;;;5089051;28;20055;-54
2023/08/08 02:36:51;;;;;;;3.88;0.95;;;12.80;99.90;;;;;;5089733;28;20050;-48
2023/08/08 02:39:17;;;;;;;3.17;1.52;;;12.80;99.90;;;;;;5089521;28;20575;-51
2023/08/08 02:41:43;;;;;;;2.78;1.10;;;12.80;99.90;;;;;;5089370;28;20074;-51
2023/08/08 02:44:09;;;;;;;1.98;1.02;;;12.70;99.90;;;;;;5089451;28;20050;-51
2023/08/08 02:46:34;;;;;;;1.75;1.10;;;12.80;99.90;;;;;;5089209;28;20020;-53
2023/08/08 02:49:00;;;;;;;4.88;1.10;;;12.70;99.90;;;;;;5089286;28;20430;-50
2023/08/08 02:51:25;;;;;;;3.28;1.30;;;12.80;99.90;;;;;;5089363;28;20081;-54
2023/08/08 02:53:51;;;;;;;2.00;1.00;;;12.70;99.90;;;;;;5089320;28;20028;-53
2023/08/08 02:56:17;;;;;;;3.17;1.50;;;12.60;99.90;;;;;;5089173;28;20055;-49
2023/08/08 02:58:42;;;;;;;1.40;1.00;;;12.60;99.90;;;;;;5089217;28;20043;-56
2023/08/08 03:01:08;;;;;;;3.40;1.08;;;12.60;99.90;;;;;;5089894;28;20031;-48
2023/08/08 03:03:33;;;;;;;3.00;1.27;;;12.60;99.90;;;;;;5092640;28;20032;-49
2023/08/08 03:06:00;;;;;;;5.93;1.30;;;12.60;99.90;;;;;;5093121;28;20450;-55
2023/08/08 03:08:27;;;;;;;2.83;1.05;;;12.60;99.90;;;;;;5092579;28;20021;-50
2023/08/08 03:10:53;;;;;;;7.13;1.27;;;12.50;99.90;;;;;;5092899;28;20416;-48
2023/08/08 03:13:19;;;;;;;3.05;1.27;;;12.40;99.90;;;;;;5092687;28;20042;-51
2023/08/08 03:15:45;;;;;;;3.88;1.40;;;12.50;99.90;;;;;;5092727;28;20020;-50
2023/08/08 03:18:11;;;;;;;4.53;1.30;;;12.40;99.90;;;;;;5092461;28;20392;-48
2023/08/08 03:20:36;;;;;;;7.80;1.30;;;12.40;99.90;;;;;;5092547;28;20034;-54
2023/08/08 03:23:02;;;;;;;3.47;1.10;;;12.30;99.90;;;;;;5092387;28;20050;-50
2023/08/08 03:25:27;;;;;;;3.30;0.95;;;12.30;99.90;;;;;;5092128;28;20035;-52
2023/08/08 03:27:53;;;;;;;1.58;0.90;;;12.30;99.90;;;;;;5089618;28;20020;-52
2023/08/08 03:30:19;;;;;;;2.53;0.82;;;12.20;99.90;;;;;;5077560;28;20025;-54
2023/08/08 03:32:44;;;;;;;2.38;1.20;;;12.20;99.90;;;;;;5071830;28;20709;-54
2023/08/08 03:35:10;;;;;;;2.70;1.20;;;12.20;99.90;;;;;;5071572;28;20059;-55
2023/08/08 03:37:35;;;;;;;2.83;1.02;;;11.90;99.90;;;;;;5070298;28;20021;-50
2023/08/08 03:40:01;;;;;;;1.55;0.80;;;12.20;99.90;;;;;;5071542;28;20021;-51
2023/08/08 03:42:26;;;;;;;2.67;1.05;;;12.20;99.90;;;;;;5071554;28;20016;-50
2023/08/08 03:44:52;;;;;;;2.92;1.15;;;12.60;99.90;;;;;;5071552;28;20026;-57
2023/08/08 03:47:18;;;;;;;2.92;1.00;;;12.10;99.90;;;;;;5071624;28;20123;-50
2023/08/08 03:49:43;;;;;;;2.45;1.10;;;11.30;99.90;;;;;;5073132;28;20021;-56
2023/08/08 03:52:09;;;;;;;4.03;1.10;;;10.50;99.90;;;;;;5091972;28;20032;-50
2023/08/08 03:54:34;;;;;;;1.73;1.00;;;10.30;99.90;;;;;;5091748;28;20032;-49
2023/08/08 03:57:01;;;;;;;1.98;1.00;;;12.80;99.90;;;;;;5091719;28;20021;-57
2023/08/08 03:59:26;;;;;;;2.65;1.10;;;14.10;99.90;;;;;;5091779;28;20062;-49
2023/08/08 04:01:52;;;;;;;2.30;1.20;;;13.00;99.90;;;;;;5091546;28;20226;-52
2023/08/08 04:04:18;;;;;;;2.17;0.98;;;12.00;99.90;;;;;;5091614;28;20024;-53
2023/08/08 04:06:44;;;;;;;2.00;1.10;;;12.90;99.90;;;;;;5091357;28;20103;-52
2023/08/08 04:09:09;;;;;;;2.35;1.00;;;14.30;99.90;;;;;;5090344;28;20024;-53
2023/08/08 04:11:35;;;;;;;2.03;1.10;;;13.30;99.90;;;;;;5089936;28;20028;-49
2023/08/08 04:14:01;;;;;;;3.88;0.98;;;13.20;99.90;;;;;;5089783;28;20369;-55
2023/08/08 04:16:27;;;;;;;3.25;1.00;;;10.60;99.90;;;;;;5091296;28;20023;-53
2023/08/08 04:18:53;;;;;;;2.45;0.93;;;;;;;;;;5091235;28;20103;-51
2023/08/08 04:21:19;;;;;;;3.85;1.05;;;13.40;99.90;;;;;;5091151;28;20508;-54
2023/08/08 04:23:45;;;;;;;4.43;1.13;;;;;;;;;;5091275;28;20073;-53
2023/08/08 04:26:10;;;;;;;3.22;0.98;;;9.90;99.90;;;;;;5091416;28;20031;-49
2023/08/08 04:28:36;;;;;;;10.70;1.33;;;;;;;;;;5091193;28;20032;-50
2023/08/08 04:31:02;;;;;;;3.60;1.27;;;;;;;;;;5091038;28;20017;-48
2023/08/08 04:33:28;;;;;;;7.40;1.40;;;13.20;99.90;;;;;;5090950;28;20118;-50
2023/08/08 04:35:54;;;;;;;2.22;0.90;;;13.10;99.90;;;;;;5090853;28;20073;-52
2023/08/08 04:38:19;;;;;;;3.00;1.30;;;12.30;99.90;;;;;;5091056;28;20074;-49
2023/08/08 04:40:45;;;;;;;1.13;0.80;;;9.90;99.90;;;;;;5090777;28;20051;-50
2023/08/08 04:43:10;;;;;;;3.58;1.25;;;13.30;99.90;;;;;;5090786;28;20036;-50
2023/08/08 04:45:36;;;;;;;1.90;1.10;;;10.30;99.90;;;;;;5090850;28;20035;-51
2023/08/08 04:48:02;;;;;;;7.95;1.20;;;9.50;99.90;;;;;;5090721;28;20084;-51
2023/08/08 04:50:28;;;;;;;7.80;1.40;;;13.60;99.90;;;;;;5090846;28;20526;-55
2023/08/08 04:52:53;;;;;;;3.75;1.30;;;13.60;99.90;;;;;;5090932;28;20072;-47
2023/08/08 04:55:19;;;;;;;3.72;0.98;;;9.80;99.90;;;;;;5090408;28;20119;-51
2023/08/08 04:57:45;;;;;;;4.32;1.20;;;;;;;;;;5090517;28;20020;-52
2023/08/08 05:00:11;;;;;;;3.03;1.20;;;13.80;99.90;;;;;;5090454;28;20123;-52
2023/08/08 05:02:39;;;;;;;2.13;1.05;;;10.30;99.90;;;;;;5090549;28;20517;-50
2023/08/08 05:05:05;;;;;;;3.75;1.08;;;;;;;;;;5090606;28;20024;-51
2023/08/08 05:07:31;;;;;;;2.50;1.05;;;13.70;99.90;;;;;;5090570;28;20028;-54
2023/08/08 05:09:56;;;;;;;1.90;0.88;;;9.70;99.90;;;;;;5090450;28;20469;-54
2023/08/08 05:12:22;;;;;;;5.28;1.13;;;9.90;99.90;;;;;;5090503;28;20361;-54
2023/08/08 05:14:48;;;;;;;2.20;1.10;;;;;;;;;;5090262;28;20083;-47
2023/08/08 05:17:13;;;;;;;5.32;1.02;;;13.50;99.90;;;;;;5090377;28;20035;-47
2023/08/08 05:19:39;;;;;;;3.83;1.10;;;;;;;;;;5090268;28;20498;-50
2023/08/08 05:22:06;;;;;;;5.20;1.30;;;;;;;;;;5088924;28;20176;-52
2023/08/08 05:24:31;;;;;;;1.20;0.90;;;13.90;99.90;;;;;;5089633;28;20089;-52
2023/08/08 05:26:57;;;;;;;1.73;0.98;;;12.70;99.90;;;;;;5090354;28;20422;-55
2023/08/08 05:29:23;;;;;;;2.67;1.13;;;10.10;99.90;;;;;;5090045;28;20334;-50
2023/08/08 05:31:48;;;;;;;3.08;1.30;;;10.10;99.90;;;;;;5090052;28;20027;-54
2023/08/08 05:34:14;;;;;;;1.98;1.05;;;13.90;99.90;;;;;;5089811;28;20044;-53
2023/08/08 05:36:40;;;;;;;3.00;1.20;;;10.10;99.90;;;;;;5090313;28;20058;-55
2023/08/08 05:39:06;;;;;;;6.90;1.83;;;13.90;99.90;;;;;;5089934;28;20108;-54
2023/08/08 05:41:32;;;;;;;5.70;1.33;;;13.90;99.90;;;;;;5089960;28;20107;-51
2023/08/08 05:43:58;;;;;;;1.25;0.80;;;;;;;;;;5089665;28;20035;-50
2023/08/08 05:46:24;;;;;;;1.80;1.15;;;14.30;99.90;;;;;;5089790;28;20024;-51
2023/08/08 05:48:50;;;;;;;2.42;1.15;;;;;;;;;;5089999;28;20042;-55
2023/08/08 05:51:16;;;;;;;2.30;1.10;;;13.80;99.90;;;;;;5089720;28;20117;-53
2023/08/08 05:53:42;;;;;;;2.58;1.15;;;;;;;;;;5089780;28;20071;-47
2023/08/08 05:56:08;;;;;;;2.85;1.35;;;11.60;99.90;;;;;;5089975;28;20024;-54
2023/08/08 05:58:34;;;;;;;2.63;0.75;;;14.60;99.90;;;;;;5089713;28;20024;-49
2023/08/08 06:01:00;;;;;;;3.00;1.30;;;;;;;;;;5090078;28;20583;-52
2023/08/08 06:03:27;;;;;;;3.60;1.10;;;14.40;99.90;;;;;;5089960;28;20066;-48
2023/08/08 06:05:53;;;;;;;1.60;0.90;;;14.80;99.90;;;;;;5090022;28;20024;-52
2023/08/08 06:08:18;;;;;;;6.20;2.05;;;14.70;99.90;;;;;;5089748;28;20169;-49
2023/08/08 06:10:44;;;;;;;4.40;1.90;;;14.70;99.90;;;;;;5089787;28;20418;-54
2023/08/08 06:13:09;;;;;;;7.63;1.40;;;13.80;99.90;;;;;;5089474;28;20120;-51
2023/08/08 06:15:35;;;;;;;2.00;1.05;;;11.00;99.90;;;;;;5089604;28;20032;-51
2023/08/08 06:18:00;;;;;;;3.03;1.25;;;11.70;99.90;;;;;;5089613;28;20040;-47
2023/08/08 06:20:28;;;;;;;2.92;1.30;;;11.20;99.90;;;;;;5089450;28;20393;-52
2023/08/08 06:22:54;;;;;;;2.53;1.40;;;14.30;99.90;;;;;;5089318;28;20496;-53
2023/08/08 06:25:19;;;;;;;5.63;1.77;;;15.10;99.90;;;;;;5089283;28;20024;-51
2023/08/08 06:27:45;;;;;;;3.10;1.38;;;15.50;99.90;;;;;;5089504;28;20461;-51
2023/08/08 06:30:11;;;;;;;2.50;1.23;;;15.10;99.90;;;;;;5089661;28;20027;-51
2023/08/08 06:32:37;;;;;;;3.97;1.60;;;;;;;;;;5089726;28;20081;-51
2023/08/08 06:35:03;;;;;;;4.25;1.38;;;12.50;99.90;;;;;;5089994;28;20070;-50
2023/08/08 06:37:29;;;;;;;3.20;1.23;;;15.20;99.90;;;;;;5093133;28;20020;-48
2023/08/08 06:39:54;;;;;;;3.13;1.38;;;13.00;99.90;;;;;;5093380;28;20027;-48
2023/08/08 06:42:20;;;;;;;2.25;1.30;;;16.70;99.90;;;;;;5093087;28;20116;-49
2023/08/08 06:44:46;;;;;;;2.55;1.25;;;16.80;99.90;;;;;;5093436;28;20024;-49
2023/08/08 06:47:12;;;;;;;4.05;1.15;;;;;;;;;;5093230;28;20095;-48
2023/08/08 06:49:38;;;;;;;1.83;1.02;;;14.60;99.90;;;;;;5092919;28;20016;-48
2023/08/08 06:52:05;;;;;;;2.17;1.10;;;16.30;99.90;;;;;;5093225;28;20702;-48
2023/08/08 06:54:31;;;;;;;6.63;1.50;;;18.20;99.90;;;;;;5091497;28;20509;-49
2023/08/08 06:56:57;;;;;;;3.17;1.20;;;18.00;99.90;;;;;;5092995;28;20111;-51
2023/08/08 06:59:23;;;;;;;3.03;1.30;;;14.20;99.90;;;;;;5093289;28;20062;-52
2023/08/08 07:01:50;;;;;;;2.83;1.33;;;18.20;99.90;;;;;;5093011;28;20055;-50
2023/08/08 07:04:17;;;;;;;2.50;0.88;;;18.00;99.90;;;;;;5092923;28;20081;-53
2023/08/08 07:06:43;;;;;;;1.40;0.80;;;18.00;99.90;;;;;;5085480;28;20530;-48
2023/08/08 07:09:12;;;;;;;3.17;1.23;;;;;;;;;;5077099;28;20511;-50
2023/08/08 07:11:37;;;;;;;2.28;1.10;;;14.20;99.90;;;;;;5072546;28;20047;-51
2023/08/08 07:14:03;;;;;;;3.58;1.30;;;14.80;99.90;;;;;;5072542;28;20466;-52
2023/08/08 07:16:29;;;;;;;2.85;1.05;;;13.90;99.90;;;;;;5072134;28;20024;-54
2023/08/08 07:18:55;;;;;;;5.30;1.20;;;17.00;99.90;;;;;;5072380;28;20176;-52
2023/08/08 07:21:20;;;;;;;3.47;1.20;;;17.40;99.90;;;;;;5071990;28;20070;-48
2023/08/08 07:23:46;;;;;;;6.68;1.40;;;17.20;99.90;;;;;;5071680;28;20381;-51
2023/08/08 07:26:12;;;;;;;2.70;0.70;;;;;;;;;;5064429;28;20025;-48
2023/08/08 07:28:38;;;;;;;3.22;0.95;;;16.80;99.90;;;;;;5071951;28;20032;-53
2023/08/08 07:31:03;;;;;;;1.83;0.80;;;15.70;99.90;;;;;;5076190;28;20020;-48
2023/08/08 07:33:29;;;;;;;2.78;0.88;;;13.40;99.90;;;;;;5071961;28;20119;-47
2023/08/08 07:35:55;;;;;;;3.05;0.90;;;16.90;99.90;;;;;;5071360;28;20046;-48
2023/08/08 07:38:20;;;;;;;2.08;1.00;;;12.90;99.90;;;;;;5071784;28;20016;-50
2023/08/08 07:40:47;;;;;;;2.92;0.75;;;18.10;99.90;;;;;;5071699;28;20381;-52
2023/08/08 07:46:10;;;;;;;3.85;0.85;;;16.50;99.90;;;;;;5046385;23;20147;-52
2023/08/08 07:48:35;;;;;;;2.92;0.90;;;16.70;99.90;;;;;;5046889;28;20503;-51
2023/08/08 07:51:01;;;;;;;2.03;0.93;;;17.30;99.90;;;;;;5050405;28;20127;-50
2023/08/08 07:53:26;;;;;;;1.48;0.70;;;16.50;99.90;;;;;;5051448;28;20477;-56
2023/08/08 07:55:52;;;;;;;4.50;1.38;;;13.00;99.90;;;;;;5051794;28;20373;-55
2023/08/08 07:58:18;;;;;;;2.13;0.80;;;13.70;99.90;;;;;;5049199;28;20377;-53
2023/08/08 08:00:44;;;;;;;2.83;1.15;;;;;;;;;;5040263;28;20087;-52
2023/08/08 08:03:10;;;;;;;1.77;0.95;;;16.90;99.90;;;;;;5037943;28;20025;-54
2023/08/08 08:05:37;;;;;;;1.20;0.75;;;17.30;99.90;;;;;;5048510;28;20035;-55
2023/08/08 08:08:03;;;;;;;5.07;1.13;;;18.30;99.90;;;;;;5035978;28;20493;-50
2023/08/08 08:10:28;;;;;;;4.30;1.25;;;17.20;99.90;;;;;;5043566;28;20026;-58
2023/08/08 08:12:57;;;;;;;2.17;0.85;;;15.80;99.90;;;;;;5043359;28;20074;-48
2023/08/08 08:15:24;;;;;;;1.95;1.15;;;18.30;99.90;;;;;;5031646;28;20045;-52
2023/08/08 08:17:50;;;;;;;2.97;0.90;;;16.10;99.90;;;;;;5043483;28;20489;-47
2023/08/08 08:20:15;;;;;;;2.92;1.23;;;13.00;99.90;;;;;;5036320;28;20051;-49
2023/08/08 08:22:41;;;;;;;4.93;1.30;;;16.50;99.90;;;;;;5051061;28;20071;-57
2023/08/08 08:25:09;;;;;;;2.45;1.02;;;13.80;99.90;;;;;;5050785;28;20028;-49
2023/08/08 08:27:36;;;;;;;2.03;0.95;;;16.30;99.90;;;;;;5050962;28;20028;-48
2023/08/08 08:30:03;;;;;;;7.03;1.23;;;16.40;99.90;;;;;;5044708;28;20031;-50
2023/08/08 08:32:36;;;;;;;6.15;1.50;;;14.50;99.90;;;;;;5035268;28;20037;-53
2023/08/08 08:35:03;;;;;;;10.80;1.33;;;16.90;99.90;;;;;;5035136;28;20465;-54
2023/08/08 08:37:30;;;;;;;2.08;1.33;;;17.60;99.90;;;;;;5043908;28;20436;-49
2023/08/08 08:39:55;;;;;;;2.65;1.25;;;17.80;99.90;;;;;;5041800;28;20028;-54
2023/08/08 08:42:22;;;;;;;8.43;1.30;;;16.50;99.90;;;;;;5036220;28;20017;-52
2023/08/08 08:44:49;;;;;;;1.70;1.00;;;15.10;99.90;;;;;;5040821;28;20140;-47
2023/08/08 08:47:19;;;;;;;3.40;1.10;;;18.10;99.90;;;;;;5044086;28;20033;-55
2023/08/08 08:49:45;;;;;;;2.25;1.13;;;18.20;99.90;;;;;;5038351;28;20029;-49
2023/08/08 08:52:12;;;;;;;3.55;1.13;;;19.20;99.90;;;;;;5035646;28;20021;-47
2023/08/08 08:54:38;;;;;;;2.53;1.20;;;14.80;99.90;;;;;;5050084;28;20033;-49
2023/08/08 08:57:04;;;;;;;2.95;1.20;;;17.90;99.90;;;;;;5050244;28;20021;-50
2023/08/08 08:59:29;;;;;;;2.95;1.20;;;18.60;99.90;;;;;;5046485;28;20386;-48
2023/08/08 09:01:56;;;;;;;1.33;0.88;;;17.00;99.90;;;;;;5035556;28;20074;-54
2023/08/08 09:04:22;;;;;;;3.40;1.25;;;17.70;99.90;;;;;;5034814;28;20013;-48
2023/08/08 09:06:49;;;;;;;2.90;1.27;;;18.40;99.90;;;;;;5030288;28;20029;-53
2023/08/08 09:09:16;;;;;;;2.00;1.25;;;18.30;99.90;;;;;;5035826;28;20037;-50
2023/08/08 09:11:45;;;;;;;2.35;1.10;;;17.40;99.90;;;;;;5033505;28;20485;-51
2023/08/08 09:14:25;;;;;;;2.53;1.05;;;19.00;99.90;;;;;;5033296;28;20037;-48
2023/08/08 09:16:56;;;;;;;3.35;1.27;;;18.30;99.90;;;;;;5043586;28;20033;-51
2023/08/08 09:19:22;;;;;;;2.72;1.10;;;15.70;99.90;;;;;;5033795;28;20039;-51
2023/08/08 09:21:49;;;;;;;2.20;1.23;;;18.30;99.90;;;;;;5029385;28;20032;-49
2023/08/08 09:24:15;;;;;;;1.63;0.95;;;14.80;99.90;;;;;;5032612;28;20389;-51
2023/08/08 09:26:42;;;;;;;2.47;1.10;;;18.30;99.90;;;;;;5032705;28;20032;-49
2023/08/08 09:29:08;;;;;;;2.03;1.10;;;;;;;;;;5027993;28;20025;-48
2023/08/08 09:31:37;;;;;;;2.00;1.17;;;17.70;99.90;;;;;;5032200;28;20075;-48
2023/08/08 09:34:04;;;;;;;3.08;1.27;;;18.40;99.90;;;;;;5033341;28;20052;-50
2023/08/08 09:36:29;;;;;;;1.60;1.00;;;18.00;99.90;;;;;;5033417;28;20130;-51
2023/08/08 09:38:56;;;;;;;3.97;1.35;;;17.80;99.90;;;;;;5030002;28;20105;-51
2023/08/08 09:41:23;;;;;;;2.00;1.20;;;18.10;99.90;;;;;;5034561;28;20442;-49
2023/08/08 09:43:50;;;;;;;5.60;1.00;;;19.30;99.90;;;;;;5034593;28;20022;-48
2023/08/08 09:46:16;;;;;;;3.17;1.27;;;18.70;99.90;;;;;;5031138;28;20053;-49
2023/08/08 09:48:42;;;;;;;2.22;1.00;;;19.20;99.90;;;;;;5033014;28;20025;-53
2023/08/08 09:51:09;;;;;;;2.15;1.30;;;18.30;99.90;;;;;;5034490;28;20109;-54
2023/08/08 09:53:36;;;;;;;3.22;1.17;;;19.20;99.90;;;;;;5040539;28;20167;-52
2023/08/08 09:56:03;;;;;;;2.47;1.00;;;15.40;99.90;;;;;;5049574;28;20501;-53
2023/08/08 09:58:29;;;;;;;2.90;1.13;;;;;;;;;;5049089;28;20053;-50
2023/08/08 10:00:55;;;;;;;4.40;1.15;;;19.90;99.90;;;;;;5049002;28;20110;-50
2023/08/08 10:03:22;;;;;;;2.63;1.10;;;19.00;99.90;;;;;;5049880;28;20017;-49
2023/08/08 10:05:47;;;;;;;3.25;0.93;;;17.50;99.90;;;;;;5049836;28;20040;-53
2023/08/08 10:08:17;;;;;;;2.17;1.13;;;15.00;99.90;;;;;;5049357;28;20103;-52
2023/08/08 10:10:43;;;;;;;;;;;18.00;99.90;;;;;;5040416;28;20111;-52
2023/08/08 10:13:10;;;;;;;2.63;1.30;;;17.90;99.90;;;;;;5035163;28;20387;-55
2023/08/08 10:15:39;;;;;;;2.40;1.27;;;17.80;99.90;;;;;;5038744;28;20558;-48
2023/08/08 10:18:05;;;;;;;;;;;17.80;99.90;;;;;;5046032;28;20477;-54
2023/08/08 10:20:34;;;;;;;3.33;1.25;;;19.50;99.90;;;;;;5044091;28;19946;-48
2023/08/08 10:23:02;;;;;;;4.18;1.50;;;18.80;99.90;;;;;;5044253;28;20112;-49
2023/08/08 10:25:30;;;;;;;5.68;1.38;;;18.10;99.90;;;;;;5051783;28;20374;-50
2023/08/08 10:28:23;;;;;;;5.13;1.20;;;20.10;99.90;;;;;;5044415;28;20022;-50
2023/08/08 10:31:01;;;;;;;3.20;1.30;;;15.40;99.90;;;;;;5046213;28;20029;-54
2023/08/08 10:33:47;;;;;;;1.73;1.03;;;18.00;99.90;;;;;;5034227;28;20025;-47
2023/08/08 10:36:16;;;;;;;1.75;1.20;;;19.70;99.90;;;;;;5035802;28;20062;-47
2023/08/08 10:38:44;;;;;;;2.60;1.15;;;15.10;99.90;;;;;;5047234;28;20047;-54
2023/08/08 10:41:15;;;;;;;2.10;0.90;;;18.20;99.90;;;;;;5035969;28;20427;-48
2023/08/08 10:43:55;;;;;;;2.50;1.15;;;18.20;99.90;;;;;;5040289;28;20064;-52
2023/08/08 10:46:28;;;;;;;3.13;1.05;;;18.30;99.90;;;;;;5044115;28;20038;-52
2023/08/08 10:48:56;;;;;;;2.97;0.90;;;19.60;99.90;;;;;;5031390;28;20072;-47
2023/08/08 10:51:21;;;;;;;3.30;0.90;;;18.20;99.90;;;;;;5043833;28;20378;-50
2023/08/08 10:53:51;;;;;;;1.23;0.82;;;18.80;99.90;;;;;;5033097;28;20025;-50
2023/08/08 10:56:18;;;;;;;0.98;0.70;;;18.60;99.90;;;;;;5052344;28;20029;-55
2023/08/08 10:58:48;;;;;;;0.82;0.65;;;18.30;99.90;;;;;;5032876;28;20025;-50
2023/08/08 11:01:16;;;;;;;0.60;0.60;;;17.60;99.90;;;;;;5040931;28;20117;-50
2023/08/08 11:03:43;;;;;;;2.28;0.60;;;18.00;99.90;;;;;;5037152;28;20070;-54
2023/08/08 11:06:10;;;;;;;3.15;0.75;;;18.40;99.90;;;;;;5036020;28;20036;-51
2023/08/08 11:08:38;;;;;;;2.97;0.60;;;17.50;99.90;;;;;;5040803;28;20084;-50
2023/08/08 11:11:05;;;;;;;1.63;0.90;;;18.20;99.90;;;;;;5040818;28;20025;-50
2023/08/08 11:13:31;;;;;;;3.78;0.88;;;18.50;99.90;;;;;;5032514;28;20026;-51
2023/08/08 11:15:57;;;;;;;2.92;1.00;;;18.30;99.90;;;;;;5038483;28;20080;-52
2023/08/08 11:18:23;;;;;;;1.67;0.90;;;17.40;99.90;;;;;;5038370;28;20056;-46
2023/08/08 11:20:50;;;;;;;5.10;1.02;;;18.50;99.90;;;;;;5047901;28;20103;-50
2023/08/08 11:23:16;;;;;;;2.35;0.82;;;18.40;99.90;;;;;;5033953;28;20025;-49
2023/08/08 11:25:43;;;;;;;2.65;1.00;;;17.20;99.90;;;;;;5038472;28;20060;-47
2023/08/08 11:28:10;;;;;;;4.50;1.40;;;18.20;99.90;;;;;;5044335;28;20450;-50
2023/08/08 11:30:40;;;;;;;4.93;1.13;;;14.20;99.90;;;;;;5039615;28;20026;-52
2023/08/08 11:33:06;;;;;;;3.40;1.10;;;17.90;99.90;;;;;;5036264;28;20033;-55
2023/08/08 11:35:33;;;;;;;3.60;1.13;;;17.90;99.90;;;;;;5039010;28;20171;-55
2023/08/08 11:38:00;;;;;;;1.80;1.00;;;17.90;99.90;;;;;;5035230;28;20017;-58
2023/08/08 11:40:28;;;;;;;2.38;1.08;;;17.80;99.90;;;;;;5034647;28;20033;-53
2023/08/08 11:42:56;;;;;;;2.92;1.00;;;18.00;99.90;;;;;;5036209;28;20064;-55
2023/08/08 11:45:22;;;;;;;2.85;1.27;;;;;;;;;;5037925;28;20056;-53
2023/08/08 11:47:50;;;;;;;3.22;1.10;;;17.10;99.90;;;;;;5031470;28;20382;-52
2023/08/08 11:50:16;;;;;;;6.50;1.30;;;18.30;99.90;;;;;;5033960;28;20112;-50
2023/08/08 11:52:45;;;;;;;3.55;1.23;;;17.10;99.90;;;;;;5034400;28;20457;-52
2023/08/08 11:55:11;;;;;;;3.05;0.77;;;17.00;99.90;;;;;;5041621;28;20075;-50
2023/08/08 11:57:37;;;;;;;1.98;0.90;;;17.50;99.90;;;;;;5051043;28;20069;-53
2023/08/08 12:00:08;;;;;;;5.78;1.08;;;17.90;99.90;;;;;;5051277;28;20055;-54
2023/08/08 12:02:35;;;;;;;3.63;1.30;;;17.70;99.90;;;;;;5051732;28;20033;-53
2023/08/08 12:05:08;;;;;;;2.28;0.98;;;19.30;99.90;;;;;;5051301;28;20038;-60
2023/08/08 12:07:35;;;;;;;5.18;1.23;;;18.20;99.90;;;;;;5051346;28;20025;-48
2023/08/08 12:10:02;;;;;;;2.25;1.13;;;17.00;99.90;;;;;;5036642;28;20390;-48
2023/08/08 12:12:28;;;;;;;4.10;1.40;;;;;;;;;;5034544;28;20505;-51
2023/08/08 12:14:54;;;;;;;3.20;1.10;;;17.30;99.90;;;;;;5032722;28;20030;-47
2023/08/08 12:17:24;;;;;;;4.18;1.70;;;17.80;99.90;;;;;;5035832;28;20402;-49
2023/08/08 12:19:50;;;;;;;6.35;1.67;;;;;;;;;;5035872;28;20075;-49
2023/08/08 12:22:16;;;;;;;5.72;1.80;;;18.40;99.90;;;;;;5035843;28;20423;-54
2023/08/08 12:24:42;;;;;;;11.15;2.17;;;18.30;99.90;;;;;;5035491;28;20032;-54
2023/08/08 12:27:08;;;;;;;6.00;1.48;;;17.70;99.90;;;;;;5034817;28;20090;-54
2023/08/08 12:29:34;;;;;;;4.07;1.20;;;18.10;99.90;;;;;;5038857;28;20021;-48
2023/08/08 12:31:59;;;;;;;2.55;0.95;;;19.90;99.90;;;;;;5037507;28;20026;-56
2023/08/08 12:34:25;;;;;;;3.05;1.00;;;18.90;99.90;;;;;;5036388;28;20122;-55
2023/08/08 12:36:51;;;;;;;6.43;1.27;;;17.40;99.90;;;;;;5041245;28;20025;-52
2023/08/08 12:39:16;;;;;;;5.18;0.88;;;18.60;99.90;;;;;;5031543;28;20481;-48
2023/08/08 12:41:42;;;;;;;3.40;1.35;;;;;;;;;;5031197;28;20038;-52
2023/08/08 12:44:08;;;;;;;6.20;1.38;;;18.80;99.90;;;;;;5030454;28;20038;-52
2023/08/08 12:46:34;;;;;;;1.92;0.98;;;18.80;99.90;;;;;;5031438;28;20037;-55
2023/08/08 12:48:59;;;;;;;1.58;0.90;;;18.20;99.90;;;;;;5031145;28;20105;-55
2023/08/08 12:51:25;;;;;;;1.27;0.85;;;14.80;99.90;;;;;;5030920;28;20033;-52
2023/08/08 12:53:51;;;;;;;1.98;0.90;;;18.80;99.90;;;;;;5033283;28;20029;-52
2023/08/08 12:56:16;;;;;;;3.67;1.08;;;18.20;99.90;;;;;;5050193;28;20029;-50